Bookmark and Share
Track history (hours):
 

Frio Chikuma

Last reported at 2014-Mar-28 16:18 UTC. Time now 2014-Apr-16 07:50 UTC.
Position N 50°13' W 001°39'.
Warning: this ship's position is 18 days out of date.

Length 135 m; draft 5.4 m.

Type: Cargo ship. MMSI: 353306000.

NotesDate/timePositionNaut miles runAvg speedWind from/ knotsBaromVisibWave heightAir tempDewpointWater temp
2014-Mar-28 16:18N 50°13' W 001°39'1317.1
2014-Mar-28 15:31N 50°17' W 001°19'1818.7
2014-Mar-28 14:33N 50°22' W 000°51'4019.8
2014-Mar-28 12:32N 50°34' E 000°09'1818.7
2014-Mar-28 11:33N 50°39' E 000°36'1717.2
2014-Mar-28 10:33N 50°48' E 000°59'1616.1
2014-Mar-28 09:32N 50°59' E 001°19'1515.7
2014-Mar-28 08:33N 51°10' E 001°37'1717.0
2014-Mar-28 07:32N 51°23' E 001°55'2119.0
2014-Mar-28 06:26N 51°41' E 002°13'1919.3
2014-Mar-28 05:28N 51°54' E 002°34'2417.7
2014-Mar-28 04:08N 52°03' E 003°10'1017.4
2014-Mar-28 03:33N 52°03' E 003°26'1515.2
2014-Mar-28 02:33N 52°02' E 003°51'1211.8
2014-Mar-28 01:33N 51°58' E 004°09'10 9.9
2014-Mar-28 00:33N 51°54' E 004°23'2 1.5
2014-Mar-27 23:31N 51°54' E 004°26'0 0.0
2014-Mar-27 22:32N 51°54' E 004°26'0 0.0
2014-Mar-27 21:31N 51°54' E 004°26'0 0.0
2014-Mar-27 20:32N 51°54' E 004°26'0 0.0
2014-Mar-27 19:31N 51°54' E 004°26'0 0.0
2014-Mar-27 18:29N 51°54' E 004°26'0 0.0
2014-Mar-27 17:32N 51°54' E 004°26'0 0.0
2014-Mar-27 16:31N 51°54' E 004°26'0 0.0
2014-Mar-27 15:33N 51°54' E 004°26'0 0.4
2014-Mar-27 14:33N 51°54' E 004°25'1010.2
2014-Mar-27 13:33N 51°58' E 004°09'1313.4
2014-Mar-27 12:33N 51°60' E 003°48'5115.9
2014-Mar-27 09:19N 51°40' E 002°31'1419.0
2014-Mar-27 08:33N 51°29' E 002°15'1918.4
2014-Mar-27 07:32N 51°13' E 002°00'1918.9
2014-Mar-27 06:33N 51°01' E 001°38'3818.0
2014-Mar-27 04:27N 50°31' E 001°00'1718.6
2014-Mar-27 03:33N 50°26' E 000°35'3716.9
2014-Mar-27 01:23N 50°29' W 000°22'1417.1
2014-Mar-27 00:34N 50°35' W 000°42'1514.5
2014-Mar-26 23:33N 50°43' W 001°01'19 6.2
2014-Mar-26 20:32N 50°54' W 001°25'0 0.0
2014-Mar-26 19:32N 50°54' W 001°25'2 1.0
2014-Mar-26 17:33N 50°53' W 001°23'8 7.9
2014-Mar-26 16:33N 50°45' W 001°24'1111.0
2014-Mar-26 15:33N 50°39' W 001°38'1414.0
2014-Mar-26 14:33N 50°31' W 001°57'  

Dump ship's entire track history

sailing weather and tide predictions

Frio Chikuma — 3FWG8 — position and weather